Time;durP1;ratioP1;P1;durP2;ratioP2;P2;SDS_P1;SDS_P2;PMS_P1;PMS_P2;Temp;Humidity;BMP_temperature;BMP_pressure;BME280_temperature;BME280_humidity;BME280_pressure;Samples;Min_cycle;Max_cycle;Signal;HPM_P1;HPM_P2
2023/05/21 00:01:47;;;;;;;;;16.33;14.00;;;;;;;;4950926;28;45598;-76
2023/05/21 00:04:14;;;;;;;;;11.67;11.67;;;;;;;;4956575;28;45800;-76
2023/05/21 00:06:39;;;;;;;;;7.67;4.33;;;;;;;;4935180;28;45679;-75
2023/05/21 00:09:05;;;;;;;;;19.67;15.67;;;;;;;;4954659;28;45654;-75
2023/05/21 00:11:31;;;;;;;;;14.33;14.00;;;;;;;;4951235;28;45768;-75
2023/05/21 00:13:56;;;;;;;;;18.67;13.67;;;;;;;;4964624;28;45405;-75
2023/05/21 00:16:22;;;;;;;;;19.33;18.33;;;;;;;;4957934;28;47186;-74
2023/05/21 00:18:53;;;;;;;;;25.67;24.33;;;;;;;;4947034;28;45803;-74
2023/05/21 00:21:21;;;;;;;;;19.00;15.67;;;;;;;;4945375;28;45408;-74
2023/05/21 00:23:49;;;;;;;;;17.33;16.33;;;;;;;;4946743;28;45817;-74
2023/05/21 00:26:15;;;;;;;;;14.00;12.67;;;;;;;;4948985;28;46365;-74
2023/05/21 00:28:40;;;;;;;;;15.00;14.33;;;;;;;;4954237;28;45432;-74
2023/05/21 00:31:05;;;;;;;;;15.33;12.67;;;;;;;;4954943;28;45740;-75
2023/05/21 00:33:31;;;;;;;;;17.33;12.67;;;;;;;;4951820;28;45568;-75
2023/05/21 00:35:56;;;;;;;;;14.00;13.33;;;;;;;;4959624;28;45993;-74
2023/05/21 00:38:22;;;;;;;;;18.67;17.67;;;;;;;;4949796;28;45574;-74
2023/05/21 00:40:47;;;;;;;;;15.67;13.33;;;;;;;;4952986;28;45782;-74
2023/05/21 00:43:13;;;;;;;;;21.00;17.00;;;;;;;;4951616;28;45678;-73
2023/05/21 00:45:40;;;;;;;;;14.67;14.67;;;;;;;;4952502;28;46337;-74
2023/05/21 00:48:05;;;;;;;;;18.00;16.00;;;;;;;;4950900;28;45447;-74
2023/05/21 00:50:31;;;;;;;;;18.67;15.33;;;;;;;;4950522;28;45914;-74
2023/05/21 00:52:56;;;;;;;;;18.33;15.33;;;;;;;;4940784;28;45927;-76
2023/05/21 00:55:21;;;;;;;;;15.00;13.33;;;;;;;;4950430;28;46010;-74
2023/05/21 00:57:48;;;;;;;;;17.33;17.00;;;;;;;;4952203;28;45751;-72
2023/05/21 01:00:14;;;;;;;;;21.67;16.67;;;;;;;;4950313;28;45507;-72
2023/05/21 01:02:39;;;;;;;;;20.67;16.33;;;;;;;;4958037;28;45895;-74
2023/05/21 01:05:05;;;;;;;;;15.00;15.00;;;;;;;;4950211;28;46581;-72
2023/05/21 01:07:33;;;;;;;;;17.33;16.33;;;;;;;;4962687;28;45864;-72
2023/05/21 01:09:59;;;;;;;;;15.67;15.67;;;;;;;;4962279;28;45384;-73
2023/05/21 01:12:24;;;;;;;;;20.33;17.00;;;;;;;;4948290;28;45773;-72
2023/05/21 01:14:50;;;;;;;;;23.00;20.67;;;;;;;;4941857;28;46229;-75
2023/05/21 01:17:15;;;;;;;;;17.33;15.67;;;;;;;;4954424;28;45523;-74
2023/05/21 01:19:43;;;;;;;;;19.33;18.00;;;;;;;;4954542;28;45465;-74
2023/05/21 01:22:10;;;;;;;;;18.00;17.00;;;;;;;;4942080;28;45821;-73
2023/05/21 01:24:35;;;;;;;;;21.67;16.00;;;;;;;;4952313;28;46854;-73
2023/05/21 01:27:01;;;;;;;;;15.33;13.67;;;;;;;;4951621;28;45916;-74
2023/05/21 01:29:27;;;;;;;;;18.33;17.33;;;;;;;;4953425;28;45418;-73
2023/05/21 01:32:01;;;;;;;;;17.00;15.33;;;;;;;;4950749;28;45917;-74
2023/05/21 01:34:33;;;;;;;;;23.33;22.67;;;;;;;;4958257;28;45679;-74
2023/05/21 01:37:17;;;;;;;;;22.33;21.00;;;;;;;;4974848;28;45741;-73
2023/05/21 01:39:44;;;;;;;;;21.33;20.00;;;;;;;;4946657;28;45927;-74
2023/05/21 01:42:10;;;;;;;;;22.67;20.00;;;;;;;;4952771;28;46069;-75
2023/05/21 01:44:36;;;;;;;;;20.00;17.67;;;;;;;;4954847;28;46329;-73
2023/05/21 01:47:02;;;;;;;;;24.00;19.33;;;;;;;;4944109;28;45618;-75
2023/05/21 01:49:28;;;;;;;;;22.67;22.67;;;;;;;;4953766;28;45468;-73
2023/05/21 01:51:53;;;;;;;;;20.33;19.33;;;;;;;;4954102;28;45835;-73
2023/05/21 01:54:18;;;;;;;;;23.67;20.00;;;;;;;;4953915;28;46330;-73
2023/05/21 01:56:44;;;;;;;;;20.67;18.67;;;;;;;;4968571;28;45682;-73
2023/05/21 01:59:10;;;;;;;;;24.00;20.33;;;;;;;;4952131;28;45380;-76
2023/05/21 02:01:35;;;;;;;;;26.00;22.33;;;;;;;;4951520;28;45495;-73
2023/05/21 02:04:00;;;;;;;;;21.00;21.00;;;;;;;;4951363;28;46433;-73
2023/05/21 02:06:26;;;;;;;;;24.67;23.67;;;;;;;;4944132;28;45385;-72
2023/05/21 02:08:51;;;;;;;;;23.00;20.33;;;;;;;;4953850;28;45742;-73
2023/05/21 02:11:16;;;;;;;;;18.33;18.00;;;;;;;;4960887;28;45691;-72
2023/05/21 02:13:42;;;;;;;;;25.33;24.00;;;;;;;;4953720;28;45679;-74
2023/05/21 02:16:10;;;;;;;;;22.33;22.33;;;;;;;;4956683;28;45877;-73
2023/05/21 02:18:45;;;;;;;;;21.00;20.33;;;;;;;;4943073;28;45714;-74
2023/05/21 02:21:10;;;;;;;;;40.00;36.33;;;;;;;;4941877;28;45522;-74
2023/05/21 02:23:36;;;;;;;;;28.00;28.00;;;;;;;;4953031;28;45651;-73
2023/05/21 02:26:01;;;;;;;;;30.33;26.33;;;;;;;;4953856;28;45606;-74
2023/05/21 02:28:28;;;;;;;;;23.33;23.33;;;;;;;;4953434;28;45413;-74
2023/05/21 02:30:53;;;;;;;;;29.33;22.67;;;;;;;;4951853;28;45650;-73
2023/05/21 02:33:20;;;;;;;;;20.33;20.33;;;;;;;;4952331;28;45401;-75
2023/05/21 02:35:45;;;;;;;;;17.00;17.00;;;;;;;;4965327;28;45774;-73
2023/05/21 02:38:12;;;;;;;;;33.00;24.67;;;;;;;;4953531;28;45674;-73
2023/05/21 02:40:37;;;;;;;;;16.67;15.67;;;;;;;;4951223;28;45823;-73
2023/05/21 02:43:03;;;;;;;;;25.67;20.33;;;;;;;;4952959;28;46558;-77
2023/05/21 02:45:28;;;;;;;;;30.00;25.33;;;;;;;;4943458;28;45881;-73
2023/05/21 02:47:53;;;;;;;;;21.67;20.00;;;;;;;;4951174;28;45449;-73
2023/05/21 02:50:21;;;;;;;;;22.50;20.00;;;;;;;;4954810;28;45490;-75
2023/05/21 02:52:46;;;;;;;;;22.33;20.67;;;;;;;;4953719;28;46174;-74
2023/05/21 02:55:11;;;;;;;;;21.00;19.33;;;;;;;;4951762;28;45662;-72
2023/05/21 02:57:36;;;;;;;;;25.33;19.33;;;;;;;;4952206;28;45493;-74
2023/05/21 03:00:02;;;;;;;;;26.67;22.00;;;;;;;;4932750;28;45451;-72
2023/05/21 03:02:28;;;;;;;;;26.67;21.67;;;;;;;;4952475;28;47284;-74
2023/05/21 03:04:54;;;;;;;;;23.00;22.00;;;;;;;;4952346;28;45426;-73
2023/05/21 03:07:20;;;;;;;;;28.33;26.00;;;;;;;;4952679;28;45310;-73
2023/05/21 03:09:46;;;;;;;;;29.67;20.67;;;;;;;;4959208;28;45370;-75
2023/05/21 03:12:11;;;;;;;;;24.00;22.67;;;;;;;;4950938;28;45695;-74
2023/05/21 03:14:36;;;;;;;;;22.67;21.33;;;;;;;;4951319;28;45923;-73
2023/05/21 03:17:05;;;;;;;;;33.00;25.00;;;;;;;;4953759;28;45757;-74
2023/05/21 03:19:34;;;;;;;;;27.00;26.00;;;;;;;;4957609;28;45613;-74
2023/05/21 03:22:00;;;;;;;;;29.00;24.00;;;;;;;;4953155;28;45799;-73
2023/05/21 03:24:26;;;;;;;;;30.67;27.67;;;;;;;;4954894;28;45681;-74
2023/05/21 03:26:51;;;;;;;;;30.00;27.00;;;;;;;;4952311;28;45508;-74
2023/05/21 03:29:16;;;;;;;;;24.67;24.67;;;;;;;;4965487;28;45448;-73
2023/05/21 03:31:41;;;;;;;;;29.33;24.33;;;;;;;;4951064;28;45455;-72
2023/05/21 03:34:07;;;;;;;;;26.00;24.33;;;;;;;;4955817;28;45664;-73
2023/05/21 03:36:33;;;;;;;;;22.00;20.67;;;;;;;;4954058;28;45567;-73
2023/05/21 03:38:58;;;;;;;;;21.67;17.33;;;;;;;;4953082;28;45449;-73
2023/05/21 03:41:23;;;;;;;;;20.33;17.33;;;;;;;;4951743;28;45639;-72
2023/05/21 03:43:49;;;;;;;;;30.00;24.67;;;;;;;;4951571;28;45491;-74
2023/05/21 03:46:14;;;;;;;;;26.00;20.33;;;;;;;;4949067;28;46111;-74
2023/05/21 03:48:39;;;;;;;;;25.67;21.67;;;;;;;;4952971;28;45518;-74
2023/05/21 03:51:05;;;;;;;;;29.67;26.00;;;;;;;;4958771;28;46802;-73
2023/05/21 03:53:32;;;;;;;;;22.67;21.67;;;;;;;;4958484;28;45433;-73
2023/05/21 03:55:57;;;;;;;;;23.33;21.67;;;;;;;;4963285;28;45504;-72
2023/05/21 03:58:23;;;;;;;;;27.00;22.33;;;;;;;;4943727;28;45731;-72
2023/05/21 04:00:48;;;;;;;;;28.00;24.00;;;;;;;;4952630;28;45828;-73
2023/05/21 04:03:16;;;;;;;;;32.00;27.00;;;;;;;;4942722;28;45688;-73
2023/05/21 04:05:42;;;;;;;;;37.67;30.33;;;;;;;;4933395;28;45768;-72
2023/05/21 04:08:07;;;;;;;;;36.33;30.33;;;;;;;;4949221;28;45739;-73
2023/05/21 04:10:33;;;;;;;;;25.00;22.67;;;;;;;;4955053;28;46149;-72
2023/05/21 04:12:58;;;;;;;;;30.00;22.33;;;;;;;;4952203;28;45826;-74
2023/05/21 04:15:23;;;;;;;;;29.00;24.00;;;;;;;;4952902;28;45396;-73
2023/05/21 04:17:49;;;;;;;;;32.00;27.67;;;;;;;;4950448;28;47511;-74
2023/05/21 04:20:15;;;;;;;;;27.67;23.33;;;;;;;;4952296;28;46198;-73
2023/05/21 04:22:41;;;;;;;;;27.33;26.33;;;;;;;;4959334;28;45478;-73
2023/05/21 04:25:06;;;;;;;;;29.33;24.67;;;;;;;;4941849;28;45512;-72
2023/05/21 04:27:33;;;;;;;;;24.00;24.00;;;;;;;;4946349;28;45909;-73
2023/05/21 04:29:58;;;;;;;;;28.67;25.67;;;;;;;;4947984;28;47971;-74
2023/05/21 04:32:23;;;;;;;;;26.67;23.67;;;;;;;;4949129;28;45726;-75
2023/05/21 04:34:49;;;;;;;;;21.67;21.33;;;;;;;;4960055;28;45449;-73
2023/05/21 04:37:16;;;;;;;;;23.67;22.67;;;;;;;;4968455;28;45796;-74
2023/05/21 04:39:42;;;;;;;;;23.33;22.00;;;;;;;;4952400;28;46287;-74
2023/05/21 04:42:09;;;;;;;;;28.67;24.33;;;;;;;;4948271;28;45829;-73
2023/05/21 04:44:34;;;;;;;;;28.00;23.33;;;;;;;;4945296;28;45918;-76
2023/05/21 04:47:00;;;;;;;;;26.67;22.33;;;;;;;;4947627;28;45914;-72
2023/05/21 04:49:26;;;;;;;;;24.00;20.33;;;;;;;;4952479;28;46112;-72
2023/05/21 04:51:51;;;;;;;;;30.33;25.67;;;;;;;;4949958;28;45465;-74
2023/05/21 04:54:16;;;;;;;;;29.67;24.67;;;;;;;;4953402;28;45919;-75
2023/05/21 04:56:41;;;;;;;;;30.33;27.00;;;;;;;;4953308;28;45756;-75
2023/05/21 04:59:07;;;;;;;;;27.33;23.33;;;;;;;;4947726;28;45940;-75
2023/05/21 05:01:33;;;;;;;;;32.67;30.67;;;;;;;;4937545;28;45780;-74
2023/05/21 05:03:59;;;;;;;;;27.67;27.67;;;;;;;;4955652;28;45322;-73
2023/05/21 05:06:27;;;;;;;;;37.33;28.67;;;;;;;;4947497;28;45522;-73
2023/05/21 05:08:52;;;;;;;;;23.33;23.00;;;;;;;;4954609;28;45798;-74
2023/05/21 05:11:18;;;;;;;;;31.00;25.33;;;;;;;;4952967;28;45989;-74
2023/05/21 05:13:43;;;;;;;;;27.67;25.00;;;;;;;;4955415;28;45388;-74
2023/05/21 05:16:08;;;;;;;;;25.67;25.67;;;;;;;;4952520;28;45473;-73
2023/05/21 05:18:34;;;;;;;;;32.67;27.67;;;;;;;;4945488;28;45934;-78
2023/05/21 05:21:00;;;;;;;;;26.00;23.33;;;;;;;;4955230;28;45649;-77
2023/05/21 05:23:25;;;;;;;;;30.67;27.67;;;;;;;;4957788;28;45479;-74
2023/05/21 05:25:50;;;;;;;;;31.00;24.33;;;;;;;;4951911;28;46135;-74
2023/05/21 05:28:16;;;;;;;;;26.67;26.00;;;;;;;;4956539;28;47141;-74
2023/05/21 05:30:41;;;;;;;;;25.33;22.00;;;;;;;;4946298;28;45562;-74
2023/05/21 05:33:06;;;;;;;;;22.33;20.00;;;;;;;;4953907;28;46968;-74
2023/05/21 05:35:32;;;;;;;;;20.67;17.67;;;;;;;;4963643;28;45421;-76
2023/05/21 05:37:57;;;;;;;;;26.67;26.67;;;;;;;;4946840;28;46026;-74
2023/05/21 05:40:22;;;;;;;;;31.33;29.33;;;;;;;;4946094;28;45570;-75
2023/05/21 05:42:48;;;;;;;;;29.00;22.00;;;;;;;;4940770;28;45472;-76
2023/05/21 05:45:13;;;;;;;;;29.00;26.33;;;;;;;;4953350;28;45852;-75
2023/05/21 05:47:39;;;;;;;;;28.00;22.33;;;;;;;;4958265;28;46899;-74
2023/05/21 05:50:04;;;;;;;;;28.00;26.00;;;;;;;;4948313;28;45687;-75
2023/05/21 05:52:29;;;;;;;;;28.00;22.00;;;;;;;;4943117;28;45904;-75
2023/05/21 05:54:55;;;;;;;;;21.67;21.67;;;;;;;;4950539;28;45578;-75
2023/05/21 05:57:20;;;;;;;;;31.67;28.67;;;;;;;;4951382;28;46081;-76
2023/05/21 05:59:46;;;;;;;;;33.33;26.67;;;;;;;;4951665;28;45842;-75
2023/05/21 06:02:11;;;;;;;;;24.33;21.67;;;;;;;;4952501;28;45923;-75
2023/05/21 06:04:36;;;;;;;;;21.33;21.00;;;;;;;;4950236;28;45989;-73
2023/05/21 06:07:01;;;;;;;;;26.67;23.67;;;;;;;;4947707;28;46077;-74
2023/05/21 06:09:27;;;;;;;;;27.00;24.67;;;;;;;;4939580;28;45398;-74
2023/05/21 06:11:52;;;;;;;;;23.00;20.33;;;;;;;;4947812;28;45804;-74
2023/05/21 06:14:17;;;;;;;;;42.00;36.00;;;;;;;;4951018;28;45598;-75
2023/05/21 06:16:43;;;;;;;;;25.67;21.67;;;;;;;;4954075;28;47121;-74
2023/05/21 06:19:08;;;;;;;;;27.67;25.67;;;;;;;;4945893;28;45916;-75
2023/05/21 06:21:33;;;;;;;;;26.33;23.33;;;;;;;;4954878;28;45876;-76
2023/05/21 06:23:58;;;;;;;;;25.33;19.67;;;;;;;;4947930;28;45895;-76
2023/05/21 06:26:24;;;;;;;;;29.00;24.67;;;;;;;;4947718;28;46617;-75
2023/05/21 06:28:49;;;;;;;;;31.67;29.33;;;;;;;;4943150;28;45922;-75
2023/05/21 06:31:15;;;;;;;;;20.33;15.67;;;;;;;;4944123;28;45491;-75
2023/05/21 06:33:40;;;;;;;;;21.00;20.67;;;;;;;;4940707;28;46646;-75
2023/05/21 06:36:05;;;;;;;;;27.33;22.33;;;;;;;;4938360;28;45771;-76
2023/05/21 06:38:30;;;;;;;;;25.67;25.00;;;;;;;;4943616;28;45515;-76
2023/05/21 06:40:57;;;;;;;;;22.67;20.00;;;;;;;;4944766;28;45903;-76
2023/05/21 06:43:22;;;;;;;;;21.00;21.00;;;;;;;;4942695;28;45658;-75
2023/05/21 06:45:48;;;;;;;;;22.67;19.67;;;;;;;;4943356;28;46296;-74
2023/05/21 06:48:15;;;;;;;;;28.33;24.33;;;;;;;;4961187;28;46028;-76
2023/05/21 06:50:40;;;;;;;;;27.67;26.67;;;;;;;;4944222;28;45839;-75
2023/05/21 06:53:06;;;;;;;;;22.33;22.33;;;;;;;;4944871;28;46671;-74
2023/05/21 06:55:31;;;;;;;;;20.00;18.00;;;;;;;;4943065;28;45849;-75
2023/05/21 06:57:56;;;;;;;;;26.00;21.33;;;;;;;;4944547;28;46172;-74
2023/05/21 07:00:21;;;;;;;;;22.00;21.67;;;;;;;;4941589;28;45584;-74
2023/05/21 07:02:47;;;;;;;;;22.00;20.33;;;;;;;;4947766;28;45549;-75
2023/05/21 07:05:12;;;;;;;;;22.67;19.00;;;;;;;;4942010;28;45705;-74
2023/05/21 07:07:37;;;;;;;;;19.67;18.00;;;;;;;;4936388;28;45612;-75
2023/05/21 07:10:03;;;;;;;;;18.00;16.33;;;;;;;;4942215;28;45757;-76
2023/05/21 07:12:28;;;;;;;;;21.00;18.00;;;;;;;;4943494;28;47200;-73
2023/05/21 07:14:53;;;;;;;;;26.33;24.33;;;;;;;;4944125;28;45493;-76
2023/05/21 07:17:18;;;;;;;;;22.67;18.33;;;;;;;;4949238;28;45818;-73
2023/05/21 07:19:44;;;;;;;;;21.00;18.33;;;;;;;;4942898;28;45491;-74
2023/05/21 07:22:11;;;;;;;;;15.67;15.33;;;;;;;;4942318;28;45890;-74
2023/05/21 07:24:36;;;;;;;;;15.67;15.67;;;;;;;;4942581;28;46197;-73
2023/05/21 07:27:02;;;;;;;;;20.67;20.00;;;;;;;;4941692;28;45934;-75
2023/05/21 07:29:27;;;;;;;;;26.33;21.00;;;;;;;;4943368;28;45861;-73
2023/05/21 07:31:53;;;;;;;;;23.00;23.00;;;;;;;;4941829;28;45528;-75
2023/05/21 07:34:18;;;;;;;;;19.67;19.67;;;;;;;;4941031;28;46225;-76
2023/05/21 07:36:44;;;;;;;;;18.00;18.00;;;;;;;;4947126;28;45915;-73
2023/05/21 07:39:09;;;;;;;;;20.33;18.00;;;;;;;;4940027;28;46028;-73
2023/05/21 07:41:35;;;;;;;;;26.00;22.33;;;;;;;;4942562;28;45830;-75
2023/05/21 07:44:00;;;;;;;;;21.33;17.67;;;;;;;;4944313;28;46675;-74
2023/05/21 07:46:25;;;;;;;;;19.33;16.00;;;;;;;;4944604;28;45544;-74
2023/05/21 07:48:51;;;;;;;;;17.67;16.67;;;;;;;;4945628;28;45485;-74
2023/05/21 07:51:16;;;;;;;;;18.33;18.00;;;;;;;;4939327;28;45431;-74
2023/05/21 07:53:41;;;;;;;;;17.33;17.33;;;;;;;;4944282;28;45893;-74
2023/05/21 07:56:06;;;;;;;;;21.67;19.33;;;;;;;;4945709;28;45462;-73
2023/05/21 07:58:33;;;;;;;;;17.33;17.33;;;;;;;;4945291;28;45864;-74
2023/05/21 08:00:59;;;;;;;;;14.67;14.67;;;;;;;;4945852;28;45834;-75
2023/05/21 08:03:25;;;;;;;;;15.67;15.67;;;;;;;;4944784;28;46623;-73
2023/05/21 08:05:50;;;;;;;;;19.33;15.67;;;;;;;;4947866;28;45771;-74
2023/05/21 08:08:16;;;;;;;;;20.33;18.00;;;;;;;;4943176;28;45761;-73
2023/05/21 08:10:42;;;;;;;;;13.75;9.75;;;;;;;;4940646;28;45461;-73
2023/05/21 08:13:07;;;;;;;;;15.25;14.25;;;;;;;;4943227;28;46342;-74
2023/05/21 08:15:32;;;;;;;;;20.25;18.25;;;;;;;;4948375;28;45737;-74
2023/05/21 08:17:58;;;;;;;;;17.00;16.00;;;;;;;;4945353;28;45928;-74
2023/05/21 08:20:23;;;;;;;;;15.00;14.67;;;;;;;;4938039;28;46265;-76
2023/05/21 08:22:49;;;;;;;;;16.67;16.33;;;;;;;;4942163;28;45481;-74
2023/05/21 08:25:14;;;;;;;;;12.00;10.25;;;;;;;;4943657;28;45665;-74
2023/05/21 08:27:40;;;;;;;;;18.00;14.67;;;;;;;;4945326;28;45405;-74
2023/05/21 08:30:05;;;;;;;;;13.00;12.25;;;;;;;;4946338;28;46107;-74
2023/05/21 08:32:30;;;;;;;;;15.00;13.25;;;;;;;;4946035;28;46345;-74
2023/05/21 08:34:57;;;;;;;;;13.50;13.50;;;;;;;;4945232;28;45780;-73
2023/05/21 08:37:22;;;;;;;;;13.33;12.00;;;;;;;;4945880;28;45974;-75
2023/05/21 08:39:47;;;;;;;;;9.25;8.75;;;;;;;;4938491;28;47216;-76
2023/05/21 08:42:26;;;;;;;;;11.00;11.00;;;;;;;;4937374;28;48467;-73
2023/05/21 08:44:54;;;;;;;;;15.50;12.25;;;;;;;;4946064;28;45887;-73
2023/05/21 08:47:22;;;;;;;;;11.25;11.25;;;;;;;;4946385;28;45880;-74
2023/05/21 08:49:49;;;;;;;;;14.00;12.25;;;;;;;;4936237;28;45939;-73
2023/05/21 08:52:14;;;;;;;;;11.75;11.75;;;;;;;;4943794;28;45959;-74
2023/05/21 08:54:40;;;;;;;;;16.50;13.50;;;;;;;;4941591;28;45882;-74
2023/05/21 08:57:06;;;;;;;;;13.25;13.25;;;;;;;;4938079;28;46126;-75
2023/05/21 08:59:31;;;;;;;;;11.00;11.00;;;;;;;;4943615;28;46053;-76
2023/05/21 09:01:56;;;;;;;;;14.50;12.75;;;;;;;;4942381;28;45923;-75
2023/05/21 09:04:22;;;;;;;;;14.00;13.33;;;;;;;;4944217;28;46445;-74
2023/05/21 09:06:47;;;;;;;;;11.33;11.33;;;;;;;;4939879;28;45747;-76
2023/05/21 09:09:20;;;;;;;;;8.50;8.50;;;;;;;;4937598;28;46488;-74
2023/05/21 09:11:46;;;;;;;;;14.00;13.33;;;;;;;;4941675;28;45950;-78
2023/05/21 09:14:12;;;;;;;;;12.00;12.00;;;;;;;;4941887;28;46048;-75
2023/05/21 09:16:37;;;;;;;;;17.67;15.33;;;;;;;;4935972;28;45979;-77
2023/05/21 09:19:03;;;;;;;;;12.50;11.25;;;;;;;;4935706;28;45815;-80
2023/05/21 09:21:28;;;;;;;;;15.67;12.33;;;;;;;;4938482;28;47635;-77
2023/05/21 09:23:57;;;;;;;;;14.00;14.00;;;;;;;;4947249;28;45524;-76
2023/05/21 09:26:25;;;;;;;;;15.67;14.33;;;;;;;;4940643;28;45974;-76
2023/05/21 09:28:55;;;;;;;;;14.00;12.33;;;;;;;;4943575;28;46175;-76
2023/05/21 09:31:22;;;;;;;;;12.50;10.50;;;;;;;;4947236;28;47570;-77
2023/05/21 09:33:48;;;;;;;;;10.33;10.33;;;;;;;;4958117;28;45829;-77
2023/05/21 09:36:13;;;;;;;;;9.25;9.25;;;;;;;;4934188;28;45973;-77
2023/05/21 09:38:38;;;;;;;;;21.67;20.33;;;;;;;;4948618;28;45584;-75
2023/05/21 09:41:04;;;;;;;;;11.67;11.67;;;;;;;;4940620;28;46617;-77
2023/05/21 09:43:30;;;;;;;;;16.33;14.33;;;;;;;;4938840;28;46193;-77
2023/05/21 09:45:56;;;;;;;;;10.33;9.00;;;;;;;;4939377;28;46906;-75
2023/05/21 09:48:36;;;;;;;;;17.00;14.67;;;;;;;;4944611;28;46013;-76
2023/05/21 09:51:12;;;;;;;;;18.00;18.00;;;;;;;;4940435;28;45711;-74
2023/05/21 09:53:46;;;;;;;;;19.00;14.67;;;;;;;;4936727;28;45444;-74
2023/05/21 09:56:12;;;;;;;;;15.00;13.67;;;;;;;;4941364;28;45561;-73
2023/05/21 09:58:37;;;;;;;;;15.67;14.33;;;;;;;;4946738;28;45970;-75
2023/05/21 10:01:02;;;;;;;;;19.00;16.00;;;;;;;;4939118;28;46144;-77
2023/05/21 10:03:30;;;;;;;;;15.00;15.00;;;;;;;;4946175;28;45998;-82
2023/05/21 10:05:57;;;;;;;;;17.67;17.67;;;;;;;;4944298;28;45907;-82
2023/05/21 10:08:28;;;;;;;;;11.00;9.00;;;;;;;;4941523;28;45606;-82
2023/05/21 10:10:53;;;;;;;;;17.33;14.67;;;;;;;;4944997;28;45866;-80
2023/05/21 10:13:20;;;;;;;;;13.00;12.67;;;;;;;;4957668;28;45292;-83
2023/05/21 10:16:00;;;;;;;;;16.00;13.00;;;;;;;;4955237;28;45487;-83
2023/05/21 10:18:26;;;;;;;;;21.67;17.33;;;;;;;;4950840;28;46613;-85
2023/05/21 10:20:52;;;;;;;;;23.00;18.67;;;;;;;;4948987;28;46198;-80
2023/05/21 10:23:17;;;;;;;;;18.00;14.67;;;;;;;;4952258;28;45761;-82
2023/05/21 10:25:43;;;;;;;;;17.67;15.67;;;;;;;;4958491;28;45445;-82
2023/05/21 10:28:08;;;;;;;;;20.00;17.67;;;;;;;;4966797;28;45154;-82
2023/05/21 10:30:35;;;;;;;;;13.33;13.33;;;;;;;;4965841;28;45611;-81
2023/05/21 10:33:00;;;;;;;;;21.33;17.67;;;;;;;;4965074;28;45482;-83
2023/05/21 10:35:26;;;;;;;;;12.67;12.67;;;;;;;;4963913;28;45744;-79
2023/05/21 10:37:51;;;;;;;;;14.25;12.50;;;;;;;;4955075;28;45725;-83
2023/05/21 10:40:17;;;;;;;;;15.67;15.33;;;;;;;;4947850;28;46031;-82
2023/05/21 10:42:56;;;;;;;;;14.50;14.50;;;;;;;;4957807;28;45445;-84
2023/05/21 10:45:41;;;;;;;;;18.67;15.00;;;;;;;;4948866;28;45426;-83
2023/05/21 10:48:10;;;;;;;;;16.00;12.67;;;;;;;;4957611;28;45448;-83
2023/05/21 10:50:35;;;;;;;;;13.00;13.00;;;;;;;;4949226;28;46274;-83
2023/05/21 10:53:09;;;;;;;;;16.00;14.67;;;;;;;;4957358;28;45833;-82
2023/05/21 10:55:54;;;;;;;;;18.33;17.33;;;;;;;;4954871;28;45877;-83
2023/05/21 10:58:51;;;;;;;;;15.33;15.33;;;;;;;;4953182;28;45860;-83
2023/05/21 11:01:18;;;;;;;;;19.00;16.67;;;;;;;;4908948;28;47466;-83
2023/05/21 11:03:44;;;;;;;;;19.67;16.33;;;;;;;;4948932;28;45731;-82
2023/05/21 11:06:10;;;;;;;;;17.00;13.00;;;;;;;;4948300;28;45553;-82
2023/05/21 11:08:36;;;;;;;;;16.67;16.67;;;;;;;;4951899;28;45782;-83
2023/05/21 11:11:02;;;;;;;;;15.67;14.33;;;;;;;;4953889;28;45738;-81
2023/05/21 11:13:30;;;;;;;;;25.33;25.33;;;;;;;;4957160;28;45548;-81
2023/05/21 11:15:58;;;;;;;;;21.00;16.67;;;;;;;;4958610;28;45714;-83
2023/05/21 11:18:23;;;;;;;;;18.00;15.67;;;;;;;;4942191;28;45935;-81
2023/05/21 11:20:50;;;;;;;;;18.67;17.00;;;;;;;;4952897;28;45433;-80
2023/05/21 11:23:15;;;;;;;;;18.00;18.00;;;;;;;;4950091;28;45678;-81
2023/05/21 11:25:40;;;;;;;;;13.33;10.67;;;;;;;;4955413;28;45370;-82
2023/05/21 11:28:08;;;;;;;;;19.33;19.33;;;;;;;;4944246;28;45324;-83
2023/05/21 11:30:33;;;;;;;;;20.00;19.00;;;;;;;;4959854;28;46286;-83
2023/05/21 11:33:11;;;;;;;;;20.33;19.33;;;;;;;;4952028;28;45389;-83
2023/05/21 11:35:42;;;;;;;;;19.00;17.33;;;;;;;;4962567;28;44780;-83
2023/05/21 11:38:08;;;;;;;;;16.67;15.67;;;;;;;;4958446;28;45803;-80
2023/05/21 11:40:34;;;;;;;;;16.33;15.33;;;;;;;;4966027;28;45748;-83
2023/05/21 11:42:59;;;;;;;;;13.00;13.00;;;;;;;;4940992;28;45500;-82
2023/05/21 11:45:29;;;;;;;;;20.33;18.00;;;;;;;;4959385;28;45413;-84
2023/05/21 11:47:55;;;;;;;;;14.67;14.67;;;;;;;;4953061;28;45543;-83
2023/05/21 11:50:20;;;;;;;;;15.67;14.33;;;;;;;;4953088;28;46377;-83
2023/05/21 11:52:46;;;;;;;;;19.67;17.33;;;;;;;;4960409;28;45706;-82
2023/05/21 11:55:12;;;;;;;;;24.67;19.33;;;;;;;;4960101;28;45494;-83
2023/05/21 11:57:40;;;;;;;;;13.33;13.00;;;;;;;;4963684;28;46005;-83
2023/05/21 12:00:12;;;;;;;;;10.00;9.33;;;;;;;;4963891;28;45749;-83
2023/05/21 12:02:38;;;;;;;;;17.67;16.67;;;;;;;;4955743;28;45685;-84
2023/05/21 12:05:03;;;;;;;;;16.00;14.67;;;;;;;;4954455;28;45658;-84
2023/05/21 12:07:28;;;;;;;;;17.67;15.33;;;;;;;;4954588;28;45499;-83
2023/05/21 12:10:06;;;;;;;;;15.00;13.33;;;;;;;;4959514;28;46771;-88
2023/05/21 12:12:31;;;;;;;;;12.33;12.33;;;;;;;;4953498;28;45733;-87
2023/05/21 12:14:57;;;;;;;;;16.67;13.33;;;;;;;;4959611;28;45422;-87
2023/05/21 12:17:23;;;;;;;;;12.67;11.00;;;;;;;;4954496;28;45543;-86
2023/05/21 12:19:50;;;;;;;;;14.67;14.67;;;;;;;;4947077;28;45567;-86
2023/05/21 12:22:15;;;;;;;;;9.67;9.67;;;;;;;;4953827;28;45771;-87
2023/05/21 12:24:42;;;;;;;;;15.67;14.00;;;;;;;;4957415;28;45438;-87
2023/05/21 12:27:08;;;;;;;;;15.67;14.67;;;;;;;;4944945;28;45556;-86
2023/05/21 12:29:37;;;;;;;;;22.00;19.67;;;;;;;;4969579;28;45525;-87
2023/05/21 12:32:05;;;;;;;;;14.33;12.33;;;;;;;;4972862;28;44868;-87
2023/05/21 12:34:41;;;;;;;;;14.33;11.33;;;;;;;;4968723;28;45615;-86
2023/05/21 12:37:06;;;;;;;;;15.67;15.67;;;;;;;;4958791;28;45183;-87
2023/05/21 12:39:42;;;;;;;;;12.00;12.00;;;;;;;;4969965;28;46725;-85
2023/05/21 12:42:08;;;;;;;;;13.33;12.00;;;;;;;;4963347;28;45456;-87
2023/05/21 12:44:33;;;;;;;;;16.00;12.67;;;;;;;;4963626;28;45536;-85
2023/05/21 12:46:58;;;;;;;;;23.00;16.33;;;;;;;;4967364;28;45463;-86
2023/05/21 12:49:31;;;;;;;;;34.33;29.33;;;;;;;;4960333;28;45463;-86
2023/05/21 12:51:56;;;;;;;;;19.67;16.67;;;;;;;;4963142;28;45465;-86
2023/05/21 12:54:27;;;;;;;;;13.00;10.33;;;;;;;;4960347;28;45661;-86
2023/05/21 12:56:52;;;;;;;;;15.67;14.67;;;;;;;;4970069;28;46121;-88
2023/05/21 12:59:18;;;;;;;;;17.33;13.67;;;;;;;;4963302;28;45766;-85
2023/05/21 13:01:46;;;;;;;;;18.00;16.33;;;;;;;;4968436;28;45507;-86
2023/05/21 13:04:11;;;;;;;;;18.00;14.67;;;;;;;;4964165;28;45698;-86
2023/05/21 13:06:43;;;;;;;;;14.67;13.67;;;;;;;;4962652;28;46316;-85
2023/05/21 13:09:08;;;;;;;;;17.33;15.33;;;;;;;;4957552;28;45773;-85
2023/05/21 13:11:33;;;;;;;;;15.67;12.00;;;;;;;;4965924;28;45373;-84
2023/05/21 13:13:59;;;;;;;;;14.33;14.33;;;;;;;;4954479;28;45459;-88
2023/05/21 13:16:24;;;;;;;;;18.33;16.00;;;;;;;;4955442;28;46435;-85
2023/05/21 13:18:49;;;;;;;;;16.33;16.33;;;;;;;;4958058;28;47107;-87
2023/05/21 13:21:14;;;;;;;;;18.67;17.33;;;;;;;;4967510;28;45789;-82
2023/05/21 13:23:40;;;;;;;;;18.00;18.00;;;;;;;;4958578;28;45442;-85
2023/05/21 13:26:05;;;;;;;;;23.67;19.33;;;;;;;;4955449;28;45735;-86
2023/05/21 13:28:31;;;;;;;;;15.33;14.67;;;;;;;;4954433;28;47544;-85
2023/05/21 13:30:56;;;;;;;;;14.67;14.67;;;;;;;;4955709;28;45404;-85
2023/05/21 13:33:21;;;;;;;;;15.67;15.67;;;;;;;;4958986;28;45423;-85
2023/05/21 13:35:50;;;;;;;;;15.33;15.00;;;;;;;;4954101;28;45716;-85
2023/05/21 13:38:15;;;;;;;;;18.67;15.33;;;;;;;;4957214;28;46339;-82
2023/05/21 13:40:40;;;;;;;;;19.33;18.00;;;;;;;;4957577;28;45586;-83
2023/05/21 13:43:05;;;;;;;;;14.50;12.00;;;;;;;;4956263;28;44817;-84
2023/05/21 13:45:32;;;;;;;;;17.67;15.33;;;;;;;;4961316;28;46198;-84
2023/05/21 13:47:58;;;;;;;;;15.67;15.67;;;;;;;;4967889;28;45586;-85
2023/05/21 13:50:23;;;;;;;;;16.67;14.67;;;;;;;;4959793;28;45734;-84
2023/05/21 13:52:48;;;;;;;;;14.33;14.33;;;;;;;;4959767;28;45667;-85
2023/05/21 13:55:14;;;;;;;;;13.67;13.67;;;;;;;;4953470;28;46136;-83
2023/05/21 13:57:40;;;;;;;;;15.33;12.00;;;;;;;;4954836;28;45477;-86
2023/05/21 14:00:08;;;;;;;;;13.00;12.67;;;;;;;;4946711;28;45608;-82
2023/05/21 14:02:33;;;;;;;;;16.33;16.33;;;;;;;;4960685;28;45743;-84
2023/05/21 14:04:58;;;;;;;;;13.67;13.67;;;;;;;;4958089;28;45908;-84
2023/05/21 14:07:27;;;;;;;;;17.67;15.00;;;;;;;;4960254;28;46019;-83
2023/05/21 14:09:52;;;;;;;;;12.33;12.33;;;;;;;;4953278;28;45489;-84
2023/05/21 14:12:17;;;;;;;;;17.00;15.33;;;;;;;;4958865;28;45774;-81
2023/05/21 14:14:43;;;;;;;;;12.33;12.33;;;;;;;;4940942;28;45552;-83